Home > Products > Valid Products > TAF

000
FTUS45 KMSO 050538
TAFBTM
TAF
KBTM 050538Z 0506/0606 14004KT P6SM SCT090
     FM051700 30006KT P6SM VCSH SCT090
     FM052100 33010G15KT P6SM VCTS BKN070CB
     FM060100 VRB05KT P6SM SCT070=



000
FTUS45 KMSO 050538
TAFMSO
TAF
KMSO 050538Z 0506/0606 VRB05KT P6SM SCT100
     FM051700 14008KT P6SM SCT100
     FM060200 VRB05KT P6SM SKC=



000
FTUS45 KMSO 050538
TAFSMN
TAF
KSMN 050538Z 0506/0606 14004KT P6SM SKC
     FM051400 33006KT P6SM VCSH SCT090
     FM052100 33010G15KT P6SM VCTS BKN070CB
     FM060100 VRB05KT P6SM SCT070
      AMD LTD TO CLD VIS AND WIND=



000
FTUS45 KMSO 050538
TAFGPI
TAF
KGPI 050538Z 0506/0606 VRB03KT 6SM FU SKC
     FM051900 18010G15KT 6SM FU SKC
     FM060200 VRB05KT 6SM FU SKC=



000
FTUS45 KMSO 050342 AAA
TAFMSO
TAF AMD
KMSO 050342Z 0504/0524 VRB05KT P6SM SCT100
     FM050500 23015G22KT P6SM VCSH BKN040
     FM050600 VRB04KT P6SM SCT090=



000
FTUS45 KMSO 042320
TAFSMN
TAF
KSMN 042320Z 0500/0524 34007G15KT P6SM VCTS SCT100CB
     FM050100 VRB05KT P6SM FEW100
      AMD LTD TO CLD VIS AND WIND=



000
FTUS45 KMSO 042320
TAFGPI
TAF
KGPI 042320Z 0500/0524 15008KT 6SM FU SCT100
     FM050300 VRB06KT 6SM FU FEW100=



000
FTUS45 KMSO 042320
TAFMSO
TAF
KMSO 042320Z 0500/0524 VRB05KT P6SM SCT100
     FM050800 VRB04KT P6SM VCSH BKN090=



000
FTUS45 KMSO 042320
TAFBTM
TAF
KBTM 042320Z 0500/0524 01009G16KT P6SM VCSH BKN090
     FM050030 29012G20KT P6SM -SHRA VCTS BKN060CB BKN100
     FM050200 VRB05KT P6SM SCT090=



000
FTUS45 KMSO 042320
TAFBTM
TAF
KBTM 042320Z 0500/0524 01009G16KT P6SM VCSH BKN090
     FM050030 29012G20KT P6SM -SHRA VCTS BKN060CB BKN100
     FM050200 VRB05KT P6SM SCT090=



000
FTUS45 KMSO 042320
TAFGPI
TAF
KGPI 042320Z 0500/0524 15008KT 6SM FU SCT100
     FM050300 VRB06KT 6SM FU FEW100=



000
FTUS45 KMSO 042320
TAFSMN
TAF
KSMN 042320Z 0500/0524 34007G15KT P6SM VCTS SCT100CB
     FM050100 VRB05KT P6SM FEW100
      AMD LTD TO CLD VIS AND WIND=



000
FTUS45 KMSO 042320
TAFMSO
TAF
KMSO 042320Z 0500/0524 VRB05KT P6SM SCT100
     FM050800 VRB04KT P6SM VCSH BKN090=



000
FTUS45 KMSO 041720
TAFGPI
TAF
KGPI 041720Z 0418/0518 17005KT P6SM BKN110
     FM042200 20008KT P6SM SCT100
     FM050300 22007KT P6SM FEW100=



000
FTUS45 KMSO 041720
TAFMSO
TAF
KMSO 041720Z 0418/0518 VRB03KT P6SM SCT120
     FM042200 30010G15KT P6SM SCT100
     FM050300 VRB05KT P6SM SCT100
     FM050800 VRB04KT P6SM VCSH BKN090=



000
FTUS45 KMSO 041720
TAFBTM
TAF
KBTM 041720Z 0418/0518 VRB05KT P6SM VCSH BKN090
     FM042000 29009G16KT P6SM VCSH BKN090
     FM042200 29012G20KT P6SM -SHRA VCTS BKN060CB BKN100
     FM050100 VRB05KT P6SM SCT090=



000
FTUS45 KMSO 041720
TAFSMN
TAF
KSMN 041720Z 0418/0518 01006KT P6SM FEW120
     FM042000 34007G15KT P6SM VCTS SCT100CB
     FM050000 VRB05KT P6SM FEW100
      AMD LTD TO CLD VIS AND WIND=



000
FTUS45 KMSO 041120
TAFSMN
TAF
KSMN 041120Z 0412/0512 VRB03KT P6SM FEW120
     FM042000 34010G15KT P6SM VCTS SCT100CB
     FM050000 VRB05KT P6SM FEW100
      AMD LTD TO CLD VIS AND WIND=



000
FTUS45 KMSO 041120
TAFMSO
TAF
KMSO 041120Z 0412/0512 VRB03KT P6SM BKN100
     FM042100 30010G15KT P6SM SCT100
     FM050300 VRB05KT P6SM SCT100=



000
FTUS45 KMSO 041120
TAFGPI
TAF
KGPI 041120Z 0412/0512 VRB04KT P6SM OVC100
     FM041800 23012G20KT P6SM SCT100
     FM050300 VRB05KT P6SM FEW100=



000
FTUS45 KMSO 041120
TAFBTM
TAF
KBTM 041120Z 0412/0512 VRB05KT P6SM VCSH BKN090
     FM042100 30012G20KT P6SM VCSH BKN090
     FM050300 VRB05KT P6SM SCT090=



000
FTUS45 KMSO 041120
TAFBTM
TAF
KBTM 041120Z 0412/0512 VRB05KT P6SM VCSH BKN090
     FM042100 30012G20KT P6SM VCSH BKN090
     FM050300 VRB05KT P6SM SCT090=



000
FTUS45 KMSO 041120
TAFSMN
TAF
KSMN 041120Z 0412/0512 VRB03KT P6SM FEW120
     FM042000 34010G15KT P6SM VCTS SCT100CB
     FM050000 VRB05KT P6SM FEW100
      AMD LTD TO CLD VIS AND WIND=



000
FTUS45 KMSO 041120
TAFMSO
TAF
KMSO 041120Z 0412/0512 VRB03KT P6SM BKN100
     FM042100 30010G15KT P6SM SCT100
     FM050300 VRB05KT P6SM SCT100=



000
FTUS45 KMSO 041120
TAFGPI
TAF
KGPI 041120Z 0412/0512 VRB04KT P6SM OVC100
     FM041800 23012G20KT P6SM SCT100
     FM050300 VRB05KT P6SM FEW100=



000
FTUS45 KMSO 040529
TAFGPI
TAF
KGPI 040529Z 0406/0506 21010KT 5SM FU BKN110
     FM041800 23012G20KT P6SM SCT110
     FM050300 VRB05KT P6SM FEW110=



000
FTUS45 KMSO 040529
TAFMSO
TAF
KMSO 040529Z 0406/0506 31010KT P6SM VCSH BKN110
     FM040900 VRB05KT P6SM SCT110
     FM042100 30010G15KT P6SM SCT110
     FM050300 VRB05KT P6SM SCT110=



000
FTUS45 KMSO 040529
TAFBTM
TAF
KBTM 040529Z 0406/0506 VRB06KT P6SM BKN150
     FM041000 VRB04KT P6SM VCSH OVC080
     FM041300 VRB04KT P6SM SCT080
     FM042100 30012G20KT P6SM VCSH BKN080
     FM050300 VRB05KT P6SM SCT080=



000
FTUS45 KMSO 040529
TAFSMN
TAF
KSMN 040529Z 0406/0506 VRB06KT P6SM VCSH FEW120
     FM042000 34010G15KT P6SM VCTS SCT100CB
     FM050000 VRB05KT P6SM FEW100
      AMD LTD TO CLD VIS AND WIND=



000
FTUS45 KMSO 040529
TAFGPI
TAF
KGPI 040529Z 0406/0506 21010KT 5SM FU BKN110
     FM041800 23012G20KT P6SM SCT110
     FM050300 VRB05KT P6SM FEW110=



000
FTUS45 KMSO 040210 AAA
TAFBTM
TAF AMD
KBTM 040210Z 0402/0424 31011KT P6SM VCSH BKN100
     FM040400 23012G20KT P6SM -SHRA BKN060 BKN100
     FM040600 24007KT P6SM VCSH BKN100
     FM040800 28008KT P6SM -SHRA OVC090
     FM041200 VRB04KT P6SM BKN090
     FM042100 29009KT P6SM VCSH BKN090=



000
FTUS45 KMSO 040210 AAA
TAFBTM
TAF AMD
KBTM 040210Z 0402/0424 31011KT P6SM VCSH BKN100
     FM040400 23012G20KT P6SM -SHRA BKN060 BKN100
     FM040600 24007KT P6SM VCSH BKN100
     FM040800 28008KT P6SM -SHRA OVC090
     FM041200 VRB04KT P6SM BKN090
     FM042100 29009KT P6SM VCSH BKN090=



000
FTUS45 KMSO 040104 AAA
TAFMSO
TAF AMD
KMSO 040104Z 0401/0424 26012G22KT P6SM VCSH BKN120
     FM040500 26012G20KT P6SM -SHRA OVC100
     FM040900 VRB06KT P6SM VCSH BKN100
     FM041200 VRB04KT P6SM BKN100
     FM042100 30011KT P6SM SCT100=



000
FTUS45 KMSO 032320
TAFMSO
TAF
KMSO 032320Z 0400/0424 30008KT P6SM SCT120
     FM040100 30008KT P6SM VCSH BKN120
     FM040600 23012G20KT P6SM -SHRA OVC100
     FM040900 VRB06KT P6SM VCSH BKN100
     FM041200 VRB04KT P6SM BKN100
     FM042100 30011KT P6SM SCT100=



000
FTUS45 KMSO 032320
TAFSMN
TAF
KSMN 032320Z 0400/0424 VRB12G25KT P6SM -SHRA VCTS BKN100CB BKN120
     FM040200 VRB06KT P6SM VCSH BKN060 BKN100
     FM040900 VRB03KT P6SM SCT060
     FM042000 32005KT P6SM VCSH BKN090
      AMD LTD TO CLD VIS AND WIND=



000
FTUS45 KMSO 032320
TAFGPI
TAF
KGPI 032320Z 0400/0424 VRB05KT 3SM FU SKC
     FM040600 VRB05KT 4SM FU BKN100
     FM040900 27010KT P6SM VCSH OVC100
     FM041200 VRB05KT P6SM BKN100
     FM042000 19011KT P6SM SCT100=



000
FTUS45 KMSO 032320
TAFBTM
TAF
KBTM 032320Z 0400/0424 13010KT P6SM SCT100
     FM040100 17012KT P6SM -SHRA VCTS BKN100CB
     FM040400 23012G20KT P6SM -SHRA BKN060 BKN100
     FM040600 24007KT P6SM VCSH BKN100
     FM040800 28008KT P6SM -SHRA OVC090
     FM041200 VRB04KT P6SM BKN090
     FM042100 29009KT P6SM VCSH BKN090=



000
FTUS45 KMSO 032320
TAFGPI
TAF
KGPI 032320Z 0400/0424 VRB05KT 3SM FU SKC
     FM040600 VRB05KT 4SM FU BKN100
     FM040900 27010KT P6SM VCSH OVC100
     FM041200 VRB05KT P6SM BKN100
     FM042000 19011KT P6SM SCT100=



000
FTUS45 KMSO 032320
TAFSMN
TAF
KSMN 032320Z 0400/0424 VRB12G25KT P6SM -SHRA VCTS BKN100CB BKN120
     FM040200 VRB06KT P6SM VCSH BKN060 BKN100
     FM040900 VRB03KT P6SM SCT060
     FM042000 32005KT P6SM VCSH BKN090
      AMD LTD TO CLD VIS AND WIND=



000
FTUS45 KMSO 032320
TAFBTM
TAF
KBTM 032320Z 0400/0424 13010KT P6SM SCT100
     FM040100 17012KT P6SM -SHRA VCTS BKN100CB
     FM040400 23012G20KT P6SM -SHRA BKN060 BKN100
     FM040600 24007KT P6SM VCSH BKN100
     FM040800 28008KT P6SM -SHRA OVC090
     FM041200 VRB04KT P6SM BKN090
     FM042100 29009KT P6SM VCSH BKN090=



000
FTUS45 KMSO 032320
TAFMSO
TAF
KMSO 032320Z 0400/0424 30008KT P6SM SCT120
     FM040100 30008KT P6SM VCSH BKN120
     FM040600 23012G20KT P6SM -SHRA OVC100
     FM040900 VRB06KT P6SM VCSH BKN100
     FM041200 VRB04KT P6SM BKN100
     FM042100 30011KT P6SM SCT100=



000
FTUS45 KMSO 032241 AAA
TAFSMN
TAF AMD
KSMN 032241Z 0323/0418 VRB12G25KT P6SM -SHRA VCTS BKN100CB BKN120
     FM040100 VRB06KT P6SM VCSH BKN060 BKN100
      AMD LTD TO CLD VIS AND WIND=



000
FTUS45 KMSO 032229 AAA
TAFGPI
TAF AMD
KGPI 032229Z 0322/0418 VRB05KT 4SM FU SKC
     FM040600 VRB05KT 5SM HZ BKN100
     FM041100 27010KT P6SM VCSH OVC100=



000
FTUS45 KMSO 031731
TAFMSO
TAF
KMSO 031731Z 0318/0418 VRB05KT 6SM HZ FEW110
     FM032200 29008KT P6SM VCSH BKN120
     FM040800 23012G20KT P6SM -SHRA OVC100
     FM041000 VRB06KT P6SM -SHRA BKN100=



000
FTUS45 KMSO 031731
TAFGPI
TAF
KGPI 031731Z 0318/0418 03008KT 4SM FU SKC
     FM032000 17009KT 6SM HZ SKC
     FM040600 VRB05KT P6SM BKN100
     FM041100 27010KT P6SM VCSH OVC100=



000
FTUS45 KMSO 031731
TAFSMN
TAF
KSMN 031731Z 0318/0418 14005KT P6SM SKC
     FM032000 19009KT P6SM -SHRA VCTS BKN120CB
     FM032300 22012G20KT P6SM -TSRA BKN100CB BKN120
     FM040200 VRB06KT P6SM -RA BKN060 BKN100
      AMD LTD TO CLD VIS AND WIND=



000
FTUS45 KMSO 031731
TAFBTM
TAF
KBTM 031731Z 0318/0418 14006KT P6SM SKC
     FM040100 17012KT P6SM -SHRA VCTS BKN100CB
     FM040400 23012G20KT P6SM -SHRA BKN060 BKN100
     FM040600 24007KT P6SM BKN100
     FM040800 VRB06KT P6SM -SHRA OVC090=



000
FTUS45 KMSO 031403 AAA
TAFGPI
TAF AMD
KGPI 031403Z 0314/0412 VRB03KT 4SM FU SKC
     FM032000 17009KT 6SM HZ SKC
     FM040600 VRB05KT P6SM BKN100
     FM041100 27010KT P6SM VCSH OVC100=



000
FTUS45 KMSO 031123
TAFGPI
TAF
KGPI 031123Z 0312/0412 VRB03KT P6SM SKC
     FM032000 17009KT P6SM SKC
     FM040600 VRB05KT P6SM BKN100
     FM041100 27010KT P6SM VCSH OVC100=



000
FTUS45 KMSO 031123
TAFSMN
TAF
KSMN 031123Z 0312/0412 14005KT P6SM SKC
     FM031800 19009KT P6SM VCSH SCT150
     FM040000 22012G20KT P6SM VCSH BKN120
     FM040400 VRB06KT P6SM BKN100
      AMD LTD TO CLD VIS AND WIND=



000
FTUS45 KMSO 031123
TAFBTM
TAF
KBTM 031123Z 0312/0412 14006KT P6SM SKC
     FM040000 17012KT P6SM VCSH SCT150
     FM040400 23012G20KT P6SM BKN120
     FM040600 24007KT P6SM BKN100
     FM041000 VRB06KT P6SM -SHRA OVC090=



000
FTUS45 KMSO 031123
TAFSMN
TAF
KSMN 031123Z 0312/0412 14005KT P6SM SKC
     FM031800 19009KT P6SM VCSH SCT150
     FM040000 22012G20KT P6SM VCSH BKN120
     FM040400 VRB06KT P6SM BKN100
      AMD LTD TO CLD VIS AND WIND=



000
FTUS45 KMSO 031123
TAFGPI
TAF
KGPI 031123Z 0312/0412 VRB03KT P6SM SKC
     FM032000 17009KT P6SM SKC
     FM040600 VRB05KT P6SM BKN100
     FM041100 27010KT P6SM VCSH OVC100=



000
FTUS45 KMSO 031123
TAFMSO
TAF
KMSO 031123Z 0312/0412 VRB05KT P6SM SKC
     FM032200 29008KT P6SM SCT120
     FM040800 23012G20KT P6SM VCSH OVC100
     FM041000 VRB06KT P6SM BKN100=



000
FTUS45 KMSO 031123
TAFBTM
TAF
KBTM 031123Z 0312/0412 14006KT P6SM SKC
     FM040000 17012KT P6SM VCSH SCT150
     FM040400 23012G20KT P6SM BKN120
     FM040600 24007KT P6SM BKN100
     FM041000 VRB06KT P6SM -SHRA OVC090=



000
FTUS45 KMSO 031123
TAFMSO
TAF
KMSO 031123Z 0312/0412 VRB05KT P6SM SKC
     FM032200 29008KT P6SM SCT120
     FM040800 23012G20KT P6SM VCSH OVC100
     FM041000 VRB06KT P6SM BKN100=



000
FTUS45 KMSO 030526
TAFGPI
TAF
KGPI 030526Z 0306/0406 VRB03KT P6SM SKC
     FM032000 17009KT P6SM SKC
     FM040500 VRB05KT P6SM BKN100=



000
FTUS45 KMSO 030526
TAFMSO
TAF
KMSO 030526Z 0306/0406 VRB03KT P6SM SKC
     FM031600 13006KT P6SM FEW120
     FM040500 VRB05KT P6SM BKN100=



000
FTUS45 KMSO 030526
TAFBTM
TAF
KBTM 030526Z 0306/0406 VRB05KT P6SM SKC
     FM031900 13009KT P6SM SKC
     FM040000 17012KT P6SM VCSH SCT150
     FM040500 24012G20KT P6SM BKN120=



000
FTUS45 KMSO 030526
TAFSMN
TAF
KSMN 030526Z 0306/0406 14005KT P6SM SKC
     FM031800 19008KT P6SM VCSH SCT150
     FM040000 23012G20KT P6SM VCSH BKN120
     FM040400 34007KT P6SM BKN100
      AMD LTD TO CLD VIS AND WIND=



000
FTUS45 KMSO 022320
TAFGPI
TAF
KGPI 022320Z 0300/0324 17010KT P6SM SCT150
     FM030200 VRB04KT 6SM HZ FU SCT150=



000
FTUS45 KMSO 022320
TAFMSO
TAF
KMSO 022320Z 0300/0324 35008KT P6SM SCT150
     FM030200 VRB04KT 6SM HZ FU SCT150=



000
FTUS45 KMSO 022320
TAFMSO
TAF
KMSO 022320Z 0300/0324 35008KT P6SM SCT150
     FM030200 VRB04KT 6SM HZ FU SCT150=



000
FTUS45 KMSO 022320
TAFBTM
TAF
KBTM 022320Z 0300/0324 35008KT P6SM SKC
     FM030400 15005KT P6SM SCT100=



000
FTUS45 KMSO 022320
TAFBTM
TAF
KBTM 022320Z 0300/0324 35008KT P6SM SKC
     FM030400 15005KT P6SM SCT100=



000
FTUS45 KMSO 022320
TAFSMN
TAF
KSMN 022320Z 0300/0324 VRB06KT P6SM SCT150
      AMD LTD TO CLD VIS AND WIND=



000
FTUS45 KMSO 022320
TAFSMN
TAF
KSMN 022320Z 0300/0324 VRB06KT P6SM SCT150
      AMD LTD TO CLD VIS AND WIND=



000
FTUS45 KMSO 022320
TAFGPI
TAF
KGPI 022320Z 0300/0324 17010KT P6SM SCT150
     FM030200 VRB04KT 6SM HZ FU SCT150=



000
FTUS45 KMSO 021730
TAFMSO
TAF
KMSO 021730Z 0218/0318 VRB03KT P6SM SKC
     FM022300 34007KT P6SM SCT150=



000
FTUS45 KMSO 021730
TAFBTM
TAF
KBTM 021730Z 0218/0318 VRB05KT P6SM SKC
     FM022100 02008KT P6SM SCT150
     FM030500 14005KT P6SM SKC=



000
FTUS45 KMSO 021730
TAFGPI
TAF
KGPI 021730Z 0218/0318 02008KT P6SM SKC
     FM022000 15006KT P6SM SCT150=



000
FTUS45 KMSO 021730
TAFSMN
TAF
KSMN 021730Z 0218/0318 VRB03KT P6SM SKC
     FM022100 36006KT P6SM SCT150
      AMD LTD TO CLD VIS AND WIND=



000
FTUS45 KMSO 021120
TAFSMN
TAF
KSMN 021120Z 0212/0312 VRB03KT P6SM SKC
     FM022100 36006KT P6SM SCT150
      AMD LTD TO CLD VIS AND WIND=



000
FTUS45 KMSO 021120
TAFMSO
TAF
KMSO 021120Z 0212/0312 VRB03KT P6SM SKC
     FM022100 33007KT P6SM SCT150=



000
FTUS45 KMSO 021120
TAFBTM
TAF
KBTM 021120Z 0212/0312 VRB05KT P6SM SKC
     FM022100 02006KT P6SM SCT150=



000
FTUS45 KMSO 021120
TAFGPI
TAF
KGPI 021120Z 0212/0312 VRB05KT P6SM SKC
     FM022000 17006KT P6SM SCT150=



000
FTUS45 KMSO 021120
TAFGPI
TAF
KGPI 021120Z 0212/0312 VRB05KT P6SM SKC
     FM022000 17006KT P6SM SCT150=



000
FTUS45 KMSO 021120
TAFMSO
TAF
KMSO 021120Z 0212/0312 VRB03KT P6SM SKC
     FM022100 33007KT P6SM SCT150=



000
FTUS45 KMSO 021120
TAFSMN
TAF
KSMN 021120Z 0212/0312 VRB03KT P6SM SKC
     FM022100 36006KT P6SM SCT150
      AMD LTD TO CLD VIS AND WIND=



000
FTUS45 KMSO 021120
TAFBTM
TAF
KBTM 021120Z 0212/0312 VRB05KT P6SM SKC
     FM022100 02006KT P6SM SCT150=



    US Dept of Commerce
    National Oceanic and Atmospheric Administration
    National Weather Service
    1325 East West Highway
    Silver Spring, MD 20910
    Page Author: NWS Internet Services Team
Disclaimer
Information Quality
Credits
Glossary
Privacy Policy
Freedom of Information Act (FOIA)
About Us
Career Opportunities